createdAt,value
2023-05-05T00:02:24.519Z,92929.09
2023-05-05T00:04:51.006Z,92930.69
2023-05-05T00:07:17.409Z,92921.19
2023-05-05T00:09:43.916Z,92921.75
2023-05-05T00:12:10.347Z,92918.63
2023-05-05T00:14:36.777Z,92920.75
2023-05-05T00:17:04.044Z,92916.03
2023-05-05T00:19:30.552Z,92917.34
2023-05-05T00:21:56.957Z,92914.72
2023-05-05T00:24:23.551Z,92917.34
2023-05-05T00:26:50.028Z,92917.66
2023-05-05T00:29:16.529Z,92919.03
2023-05-05T00:31:43.116Z,92909.22
2023-05-05T00:34:09.605Z,92912.13
2023-05-05T00:36:36.147Z,92913.44
2023-05-05T00:39:02.956Z,92920.91
2023-05-05T00:41:29.417Z,92921.66
2023-05-05T00:43:55.839Z,92915.34
2023-05-05T00:46:29.262Z,92915.63
2023-05-05T00:48:56.329Z,92917.19
2023-05-05T00:51:24.370Z,92921.66
2023-05-05T00:53:51.256Z,92911.41
2023-05-05T00:56:19.700Z,92914.81
2023-05-05T00:58:46.803Z,92920.38
2023-05-05T01:01:13.662Z,92920.41
2023-05-05T01:03:41.577Z,92915.66
2023-05-05T01:06:26.209Z,92908.78
2023-05-05T01:09:06.667Z,92907.97
2023-05-05T01:11:51.321Z,92901.69
2023-05-05T01:14:23.471Z,92900.94
2023-05-05T01:17:10.361Z,92905.19
2023-05-05T01:19:55.560Z,92909.44
2023-05-05T01:22:27.519Z,92911.28
2023-05-05T01:25:12.352Z,92915.22
2023-05-05T01:27:55.664Z,92907.34
2023-05-05T01:30:52.969Z,92915.78
2023-05-05T01:33:26.064Z,92914.75
2023-05-05T01:35:56.049Z,92919.00
2023-05-05T01:38:27.568Z,92920.38
2023-05-05T01:41:13.534Z,92914.31
2023-05-05T01:43:43.792Z,92921.19
2023-05-05T01:46:13.209Z,92916.44
2023-05-05T01:48:43.078Z,92920.72
2023-05-05T01:51:11.611Z,92921.53
2023-05-05T01:53:39.536Z,92922.59
2023-05-05T01:56:08.226Z,92919.66
2023-05-05T01:58:36.342Z,92922.81
2023-05-05T02:01:04.475Z,92916.28
2023-05-05T02:03:33.938Z,92917.59
2023-05-05T02:06:01.500Z,92930.28
2023-05-05T02:08:31.203Z,92930.28
2023-05-05T02:10:58.199Z,92934.47
2023-05-05T02:13:26.142Z,92925.50
2023-05-05T02:15:53.341Z,92927.09
2023-05-05T02:18:22.803Z,92929.22
2023-05-05T02:20:50.056Z,92919.72
2023-05-05T02:23:16.601Z,92920.50
2023-05-05T02:25:49.285Z,92925.78
2023-05-05T02:28:21.062Z,92918.38
2023-05-05T02:30:57.526Z,92924.44
2023-05-05T02:33:27.359Z,92922.06
2023-05-05T02:35:57.236Z,92924.44
2023-05-05T02:38:28.676Z,92932.66
2023-05-05T02:41:01.532Z,92938.22
2023-05-05T02:43:31.934Z,92931.31
2023-05-05T02:45:58.989Z,92934.28
2023-05-05T02:48:29.606Z,92932.44
2023-05-05T02:50:59.872Z,92932.97
2023-05-05T02:53:35.964Z,92934.56
2023-05-05T02:56:27.105Z,92932.44
2023-05-05T02:59:15.276Z,92933.72
2023-05-05T03:02:15.667Z,92936.09
2023-05-05T03:04:46.985Z,92934.00
2023-05-05T03:07:20.542Z,92927.72
2023-05-05T03:10:08.542Z,92932.44
2023-05-05T03:12:52.718Z,92930.59
2023-05-05T03:15:35.923Z,92935.06
2023-05-05T03:18:03.841Z,92929.53
2023-05-05T03:20:31.134Z,92922.44
2023-05-05T03:23:02.861Z,92922.44
2023-05-05T03:25:50.094Z,92925.63
2023-05-05T03:28:26.696Z,92926.13
2023-05-05T03:30:54.396Z,92927.44
2023-05-05T03:33:21.349Z,92923.22
2023-05-05T03:35:47.954Z,92927.44
2023-05-05T03:38:14.474Z,92926.41
2023-05-05T03:40:44.651Z,92929.84
2023-05-05T03:43:14.021Z,92933.53
2023-05-05T03:45:40.610Z,92932.72
2023-05-05T03:48:07.265Z,92937.22
2023-05-05T03:50:33.785Z,92935.38
2023-05-05T03:53:00.592Z,92924.84
2023-05-05T03:55:27.061Z,92924.06
2023-05-05T03:57:53.480Z,92924.34
2023-05-05T04:00:19.961Z,92926.19
2023-05-05T04:02:46.558Z,92922.25
2023-05-05T04:05:16.075Z,92925.13
2023-05-05T04:07:43.299Z,92920.91
2023-05-05T04:10:10.327Z,92925.88
2023-05-05T04:12:37.518Z,92921.94
2023-05-05T04:15:04.542Z,92930.88
2023-05-05T04:17:31.142Z,92938.78
2023-05-05T04:19:58.196Z,92941.44
2023-05-05T04:22:24.655Z,92932.47
2023-05-05T04:24:51.652Z,92937.19
2023-05-05T04:27:18.113Z,92940.59
2023-05-05T04:29:44.637Z,92940.59
2023-05-05T04:32:11.230Z,92931.88
2023-05-05T04:34:37.719Z,92928.94
2023-05-05T04:37:04.756Z,92936.06
2023-05-05T04:39:31.326Z,92933.94
2023-05-05T04:41:58.528Z,92931.81
2023-05-05T04:44:25.071Z,92933.41
2023-05-05T04:46:51.601Z,92926.50
2023-05-05T04:49:18.196Z,92940.25
2023-05-05T04:51:45.263Z,92944.97
2023-05-05T04:54:11.837Z,92937.84
2023-05-05T04:56:38.313Z,92940.97
2023-05-05T04:59:04.812Z,92945.72
2023-05-05T05:01:31.712Z,92947.84
2023-05-05T05:03:58.569Z,92945.41
2023-05-05T05:06:25.114Z,92949.38
2023-05-05T05:08:52.349Z,92953.81
2023-05-05T05:11:18.835Z,92948.50
2023-05-05T05:13:46.207Z,92951.94
2023-05-05T05:16:12.801Z,92955.88
2023-05-05T05:18:39.277Z,92962.97
2023-05-05T05:21:06.220Z,92962.69
2023-05-05T05:23:33.084Z,92962.13
2023-05-05T05:25:59.762Z,92965.00
2023-05-05T05:28:26.692Z,92964.72
2023-05-05T05:30:57.577Z,92970.53
2023-05-05T05:33:24.086Z,92962.06
2023-05-05T05:35:52.274Z,92975.78
2023-05-05T05:38:20.562Z,92974.16
2023-05-05T05:40:48.677Z,92982.06
2023-05-05T05:43:15.329Z,92980.97
2023-05-05T05:45:41.914Z,92979.28
2023-05-05T05:48:08.669Z,92977.66
2023-05-05T05:50:35.850Z,92975.97
2023-05-05T05:53:02.529Z,92979.16
2023-05-05T05:55:29.580Z,92977.56
2023-05-05T05:57:56.371Z,92995.00
2023-05-05T06:00:22.966Z,92987.66
2023-05-05T06:02:56.591Z,92992.94
2023-05-05T06:05:26.902Z,92994.06
2023-05-05T06:07:53.853Z,93001.72
2023-05-05T06:10:28.078Z,93001.22
2023-05-05T06:13:01.350Z,93009.19
2023-05-05T06:15:28.564Z,93013.09
2023-05-05T06:17:55.558Z,93011.53
2023-05-05T06:20:22.812Z,93004.13
2023-05-05T06:22:49.524Z,93008.38
2023-05-05T06:25:17.287Z,93014.69
2023-05-05T06:27:44.585Z,93002.03
2023-05-05T06:30:11.795Z,92993.91
2023-05-05T06:32:38.232Z,92988.38
2023-05-05T06:35:05.095Z,92993.09
2023-05-05T06:37:31.489Z,92988.63
2023-05-05T06:39:57.989Z,92988.84
2023-05-05T06:42:24.471Z,92976.44
2023-05-05T06:44:52.522Z,92966.63
2023-05-05T06:47:18.986Z,92955.00
2023-05-05T06:49:45.386Z,92971.34
2023-05-05T06:52:12.583Z,92958.41
2023-05-05T06:54:39.025Z,92968.66
2023-05-05T06:57:05.736Z,92968.59
2023-05-05T06:59:32.453Z,92979.63
2023-05-05T07:01:59.457Z,92988.00
2023-05-05T07:04:26.721Z,92992.72
2023-05-05T07:06:55.112Z,92996.03
2023-05-05T07:09:21.572Z,92994.09
2023-05-05T07:11:47.954Z,92997.69
2023-05-05T07:14:14.391Z,93004.03
2023-05-05T07:16:40.855Z,93000.69
2023-05-05T07:19:07.430Z,93003.28
2023-05-05T07:21:34.179Z,93005.13
2023-05-05T07:24:01.806Z,93001.56
2023-05-05T07:26:28.345Z,93000.31
2023-05-05T07:28:58.726Z,93006.81
2023-05-05T07:31:26.412Z,93001.97
2023-05-05T07:33:52.961Z,92999.19
2023-05-05T07:36:19.543Z,92997.41
2023-05-05T07:38:46.068Z,93003.25
2023-05-05T07:41:12.979Z,93000.19
2023-05-05T07:43:44.506Z,93006.13
2023-05-05T07:46:11.516Z,92994.13
2023-05-05T07:48:41.462Z,92995.16
2023-05-05T07:51:08.884Z,92993.91
2023-05-05T07:53:35.328Z,92992.56
2023-05-05T07:56:01.915Z,92994.81
2023-05-05T07:58:28.423Z,93000.66
2023-05-05T08:00:54.916Z,93002.44
2023-05-05T08:03:24.322Z,92989.06
2023-05-05T08:05:54.458Z,92990.53
2023-05-05T08:08:24.372Z,92989.19
2023-05-05T08:10:51.883Z,92988.28
2023-05-05T08:13:18.440Z,92982.38
2023-05-05T08:15:45.323Z,92974.03
2023-05-05T08:18:11.849Z,92976.56
2023-05-05T08:20:38.310Z,92978.97
2023-05-05T08:23:05.061Z,92984.03
2023-05-05T08:25:31.590Z,92987.88
2023-05-05T08:27:58.028Z,92985.47
2023-05-05T08:30:24.514Z,92982.50
2023-05-05T08:32:51.044Z,92984.09
2023-05-05T08:35:17.641Z,92979.75
2023-05-05T08:37:44.193Z,92966.28
2023-05-05T08:40:14.361Z,92976.50
2023-05-05T08:42:42.013Z,92970.09
2023-05-05T08:45:09.948Z,92973.28
2023-05-05T08:47:37.904Z,92973.63
2023-05-05T08:50:08.066Z,92965.50
2023-05-05T08:52:43.991Z,92960.53
2023-05-05T08:55:15.409Z,92961.91
2023-05-05T08:57:50.325Z,92963.53
2023-05-05T09:00:18.824Z,92957.06
2023-05-05T09:02:46.480Z,92972.63
2023-05-05T09:05:13.509Z,92974.00
2023-05-05T09:07:43.858Z,92970.78
2023-05-05T09:10:12.297Z,92969.97
2023-05-05T09:12:42.502Z,92975.44
2023-05-05T09:15:14.290Z,92975.06
2023-05-05T09:17:41.977Z,92976.94
2023-05-05T09:20:10.468Z,92975.41
2023-05-05T09:22:41.998Z,92973.38
2023-05-05T09:25:13.423Z,92963.84
2023-05-05T09:27:49.334Z,92967.69
2023-05-05T09:30:23.879Z,92963.69
2023-05-05T09:32:52.925Z,92962.75
2023-05-05T09:35:20.712Z,92960.59
2023-05-05T09:37:47.824Z,92956.97
2023-05-05T09:40:17.061Z,92959.97
2023-05-05T09:42:44.663Z,92956.03
2023-05-05T09:45:17.152Z,92951.19
2023-05-05T09:47:45.702Z,92945.38
2023-05-05T09:50:15.861Z,92935.66
2023-05-05T09:52:45.799Z,92943.78
2023-05-05T09:55:19.410Z,92943.63
2023-05-05T09:57:47.297Z,92943.16
2023-05-05T10:00:14.697Z,92935.53
2023-05-05T10:02:41.875Z,92935.06
2023-05-05T10:05:12.728Z,92936.63
2023-05-05T10:07:41.281Z,92923.47
2023-05-05T10:10:16.092Z,92927.91
2023-05-05T10:12:43.433Z,92926.66
2023-05-05T10:15:11.542Z,92924.59
2023-05-05T10:18:05.386Z,92916.47
2023-05-05T10:20:36.247Z,92916.53
2023-05-05T10:23:06.535Z,92920.28
2023-05-05T10:25:45.645Z,92917.69
2023-05-05T10:28:19.628Z,92910.13
2023-05-05T10:30:51.159Z,92912.41
2023-05-05T10:33:32.256Z,92914.56
2023-05-05T10:36:02.333Z,92907.25
2023-05-05T10:38:30.693Z,92909.50
2023-05-05T10:40:59.632Z,92909.78
2023-05-05T10:43:27.503Z,92907.13
2023-05-05T10:45:54.744Z,92897.66
2023-05-05T10:48:30.703Z,92899.03
2023-05-05T10:51:31.445Z,92892.72
2023-05-05T10:54:16.961Z,92888.22
2023-05-05T10:56:43.740Z,92885.38
2023-05-05T10:59:38.701Z,92878.69
2023-05-05T11:02:28.713Z,92876.41
2023-05-05T11:05:23.530Z,92879.03
2023-05-05T11:07:51.498Z,92872.56
2023-05-05T11:10:20.530Z,92872.97
2023-05-05T11:13:01.890Z,92869.19
2023-05-05T11:15:28.636Z,92862.16
2023-05-05T11:17:57.144Z,92859.41
2023-05-05T11:20:39.686Z,92858.13
2023-05-05T11:23:06.265Z,92853.53
2023-05-05T11:25:40.595Z,92853.22
2023-05-05T11:28:08.851Z,92853.91
2023-05-05T11:30:59.703Z,92855.22
2023-05-05T11:33:31.457Z,92851.56
2023-05-05T11:36:05.738Z,92845.03
2023-05-05T11:38:35.940Z,92847.25
2023-05-05T11:41:16.531Z,92848.28
2023-05-05T11:43:43.288Z,92841.28
2023-05-05T11:46:14.244Z,92844.34
2023-05-05T11:48:58.530Z,92844.34
2023-05-05T11:51:25.615Z,92844.38
2023-05-05T11:53:52.561Z,92840.59
2023-05-05T11:56:20.497Z,92845.56
2023-05-05T11:58:47.866Z,92839.13
2023-05-05T12:01:14.906Z,92843.50
2023-05-05T12:03:41.642Z,92834.88
2023-05-05T12:06:08.616Z,92827.50
2023-05-05T12:08:39.530Z,92828.19
2023-05-05T12:11:11.024Z,92821.84
2023-05-05T12:13:37.458Z,92822.19
2023-05-05T12:16:15.225Z,92820.97
2023-05-05T12:18:42.484Z,92816.53
2023-05-05T12:21:19.204Z,92808.16
2023-05-05T12:23:46.040Z,92804.25
2023-05-05T12:26:26.127Z,92812.97
2023-05-05T12:28:52.617Z,92809.94
2023-05-05T12:31:19.916Z,92816.25
2023-05-05T12:33:47.201Z,92806.84
2023-05-05T12:36:14.174Z,92806.22
2023-05-05T12:38:41.865Z,92803.69
2023-05-05T12:41:08.300Z,92806.56
2023-05-05T12:43:35.438Z,92809.44
2023-05-05T12:46:04.515Z,92802.97
2023-05-05T12:48:31.551Z,92806.28
2023-05-05T12:51:11.443Z,92796.75
2023-05-05T12:53:37.924Z,92798.53
2023-05-05T12:56:04.714Z,92788.44
2023-05-05T12:58:48.513Z,92787.28
2023-05-05T13:01:14.984Z,92782.59
2023-05-05T13:03:41.760Z,92779.28
2023-05-05T13:06:21.758Z,92771.94
2023-05-05T13:08:48.206Z,92770.38
2023-05-05T13:11:14.694Z,92772.72
2023-05-05T13:13:42.083Z,92778.16
2023-05-05T13:16:08.608Z,92765.78
2023-05-05T13:18:48.313Z,92755.66
2023-05-05T13:21:14.948Z,92754.81
2023-05-05T13:23:47.248Z,92747.88
2023-05-05T13:26:14.105Z,92739.50
2023-05-05T13:28:41.173Z,92736.34
2023-05-05T13:31:07.950Z,92725.69
2023-05-05T13:33:34.862Z,92730.97
2023-05-05T13:36:04.634Z,92723.50
2023-05-05T13:38:34.386Z,92716.72
2023-05-05T13:41:00.906Z,92714.63
2023-05-05T13:43:27.315Z,92706.00
2023-05-05T13:45:53.724Z,92712.19
2023-05-05T13:48:20.763Z,92707.09
2023-05-05T13:50:47.264Z,92701.97
2023-05-05T13:53:14.083Z,92714.09
2023-05-05T13:55:41.981Z,92712.63
2023-05-05T13:58:08.708Z,92711.06
2023-05-05T14:00:35.472Z,92703.78
2023-05-05T14:03:02.261Z,92701.22
2023-05-05T14:05:28.726Z,92704.91
2023-05-05T14:07:55.475Z,92701.84
2023-05-05T14:10:21.958Z,92686.25
2023-05-05T14:12:48.417Z,92676.31
2023-05-05T14:15:14.837Z,92672.41
2023-05-05T14:17:41.311Z,92669.56
2023-05-05T14:20:08.314Z,92657.63
2023-05-05T14:22:34.733Z,92651.69
2023-05-05T14:25:01.163Z,92649.78
2023-05-05T14:27:27.627Z,92651.75
2023-05-05T14:29:54.208Z,92652.59
2023-05-05T14:32:20.673Z,92661.63
2023-05-05T14:34:49.623Z,92664.63
2023-05-05T14:37:16.885Z,92658.38
2023-05-05T14:39:43.310Z,92665.03
2023-05-05T14:42:10.919Z,92657.75
2023-05-05T14:44:37.369Z,92659.44
2023-05-05T14:47:03.765Z,92659.41
2023-05-05T14:49:30.239Z,92632.13
2023-05-05T14:51:56.864Z,92632.16
2023-05-05T14:54:28.448Z,92643.56
2023-05-05T14:56:55.869Z,92636.88
2023-05-05T14:59:22.400Z,92614.50
2023-05-05T15:01:48.835Z,92644.69
2023-05-05T15:04:15.901Z,92686.56
2023-05-05T15:06:42.363Z,92708.47
2023-05-05T15:09:08.823Z,92745.38
2023-05-05T15:11:35.269Z,92784.59
2023-05-05T15:14:01.709Z,92800.16
2023-05-05T15:16:28.230Z,92819.50
2023-05-05T15:18:54.748Z,92887.97
2023-05-05T15:21:21.161Z,92944.56
2023-05-05T15:23:47.588Z,92987.75
2023-05-05T15:26:14.037Z,92932.47
2023-05-05T15:28:41.102Z,92901.16
2023-05-05T15:31:07.529Z,92909.41
2023-05-05T15:33:34.744Z,92889.06
2023-05-05T15:36:01.344Z,92871.50
2023-05-05T15:38:29.022Z,92854.78
2023-05-05T15:40:55.657Z,92857.94
2023-05-05T15:43:22.080Z,92862.19
2023-05-05T15:45:48.489Z,92871.88
2023-05-05T15:48:14.875Z,92863.97
2023-05-05T15:50:41.299Z,92864.59
2023-05-05T15:53:07.728Z,92867.59
2023-05-05T15:55:34.168Z,92856.97
2023-05-05T15:58:00.945Z,92863.81
2023-05-05T16:00:28.088Z,92866.88
2023-05-05T16:02:54.592Z,92869.00
2023-05-05T16:05:22.990Z,92858.34
2023-05-05T16:07:49.747Z,92852.84
2023-05-05T16:10:17.487Z,92835.97
2023-05-05T16:12:43.921Z,92824.94
2023-05-05T16:15:11.166Z,92822.91
2023-05-05T16:17:38.085Z,92822.88
2023-05-05T16:20:05.037Z,92830.13
2023-05-05T16:22:31.577Z,92825.63
2023-05-05T16:24:57.983Z,92824.75
2023-05-05T16:27:24.590Z,92820.38
2023-05-05T16:29:51.214Z,92825.59
2023-05-05T16:32:17.653Z,92820.59
2023-05-05T16:34:44.274Z,92810.44
2023-05-05T16:37:10.845Z,92814.97
2023-05-05T16:39:40.133Z,92827.34
2023-05-05T16:42:06.895Z,92829.22
2023-05-05T16:44:33.331Z,92821.88
2023-05-05T16:46:59.769Z,92812.13
2023-05-05T16:49:26.197Z,92810.41
2023-05-05T16:51:53.400Z,92796.94
2023-05-05T16:54:19.869Z,92799.53
2023-05-05T16:56:46.405Z,92798.09
2023-05-05T16:59:12.958Z,92791.72
2023-05-05T17:01:39.392Z,92787.16
2023-05-05T17:04:05.921Z,92784.78
2023-05-05T17:06:33.010Z,92783.59
2023-05-05T17:09:00.201Z,92776.00
2023-05-05T17:11:26.717Z,92770.13
2023-05-05T17:13:53.159Z,92772.63
2023-05-05T17:16:19.635Z,92765.91
2023-05-05T17:18:46.114Z,92760.75
2023-05-05T17:21:12.558Z,92772.06
2023-05-05T17:23:38.944Z,92770.31
2023-05-05T17:26:05.424Z,92762.72
2023-05-05T17:28:31.836Z,92766.53
2023-05-05T17:30:59.873Z,92755.97
2023-05-05T17:33:26.366Z,92761.72
2023-05-05T17:35:52.838Z,92761.34
2023-05-05T17:38:19.298Z,92760.56
2023-05-05T17:40:45.737Z,92765.72
2023-05-05T17:43:12.125Z,92763.13
2023-05-05T17:45:38.601Z,92778.94
2023-05-05T17:48:05.478Z,92785.09
2023-05-05T17:50:31.901Z,92779.75
2023-05-05T17:52:58.350Z,92777.84
2023-05-05T17:55:24.779Z,92778.56
2023-05-05T17:57:51.252Z,92780.38
2023-05-05T18:00:18.264Z,92791.69
2023-05-05T18:02:45.208Z,92785.28
2023-05-05T18:05:11.952Z,92786.28
2023-05-05T18:07:38.729Z,92795.09
2023-05-05T18:10:07.020Z,92790.66
2023-05-05T18:12:33.601Z,92786.06
2023-05-05T18:15:01.477Z,92793.06
2023-05-05T18:17:27.868Z,92787.84
2023-05-05T18:19:54.456Z,92796.94
2023-05-05T18:22:21.732Z,92791.66
2023-05-05T18:24:48.190Z,92798.84
2023-05-05T18:27:15.475Z,92789.41
2023-05-05T18:29:41.929Z,92793.84
2023-05-05T18:32:08.343Z,92804.69
2023-05-05T18:34:34.801Z,92807.72
2023-05-05T18:37:02.311Z,92809.22
2023-05-05T18:39:28.707Z,92809.22
2023-05-05T18:41:55.348Z,92818.94
2023-05-05T18:44:21.755Z,92818.72
2023-05-05T18:46:48.269Z,92823.00
2023-05-05T18:49:15.247Z,92829.72
2023-05-05T18:51:41.728Z,92832.50
2023-05-05T18:54:08.154Z,92837.50
2023-05-05T18:56:34.721Z,92842.03
2023-05-05T18:59:01.128Z,92841.56
2023-05-05T19:01:27.592Z,92853.09
2023-05-05T19:03:54.105Z,92859.53
2023-05-05T19:06:20.586Z,92866.16
2023-05-05T19:08:47.069Z,92865.66
2023-05-05T19:11:15.060Z,92859.06
2023-05-05T19:13:42.003Z,92865.75
2023-05-05T19:16:08.504Z,92869.63
2023-05-05T19:18:34.976Z,92878.13
2023-05-05T19:21:01.685Z,92874.00
2023-05-05T19:23:28.118Z,92880.94
2023-05-05T19:25:54.568Z,92876.78
2023-05-05T19:28:21.379Z,92887.91
2023-05-05T19:30:48.655Z,92882.69
2023-05-05T19:33:15.789Z,92882.63
2023-05-05T19:35:42.436Z,92881.00
2023-05-05T19:38:10.232Z,92886.78
2023-05-05T19:40:39.958Z,92883.91
2023-05-05T19:43:06.397Z,92891.69
2023-05-05T19:45:33.739Z,92884.53
2023-05-05T19:48:01.407Z,92885.31
2023-05-05T19:50:29.740Z,92886.72
2023-05-05T19:52:56.267Z,92894.72
2023-05-05T19:55:22.834Z,92893.63
2023-05-05T19:57:49.292Z,92896.59
2023-05-05T20:00:16.185Z,92903.78
2023-05-05T20:02:42.775Z,92902.78
2023-05-05T20:05:11.413Z,92905.97
2023-05-05T20:07:37.858Z,92900.81
2023-05-05T20:10:04.620Z,92896.38
2023-05-05T20:12:31.090Z,92905.34
2023-05-05T20:14:57.503Z,92904.63
2023-05-05T20:17:25.657Z,92900.75
2023-05-05T20:19:52.292Z,92897.34
2023-05-05T20:22:18.785Z,92902.63
2023-05-05T20:24:45.210Z,92909.47
2023-05-05T20:27:11.627Z,92907.63
2023-05-05T20:29:38.064Z,92916.69
2023-05-05T20:32:05.534Z,92917.78
2023-05-05T20:34:31.968Z,92919.94
2023-05-05T20:36:58.433Z,92909.94
2023-05-05T20:39:25.031Z,92913.13
2023-05-05T20:41:51.450Z,92912.88
2023-05-05T20:44:17.927Z,92918.41
2023-05-05T20:46:44.414Z,92918.13
2023-05-05T20:49:10.876Z,92930.03
2023-05-05T20:51:37.315Z,92917.91
2023-05-05T20:54:04.041Z,92923.47
2023-05-05T20:56:30.435Z,92921.66
2023-05-05T20:58:56.899Z,92930.66
2023-05-05T21:01:23.439Z,92926.69
2023-05-05T21:03:49.870Z,92925.63
2023-05-05T21:06:16.341Z,92922.75
2023-05-05T21:08:42.789Z,92920.41
2023-05-05T21:11:09.903Z,92919.56
2023-05-05T21:13:36.416Z,92930.41
2023-05-05T21:16:02.844Z,92923.56
2023-05-05T21:18:29.252Z,92917.47
2023-05-05T21:20:56.130Z,92923.25
2023-05-05T21:23:22.565Z,92916.50
2023-05-05T21:25:49.090Z,92914.13
2023-05-05T21:28:15.923Z,92912.28
2023-05-05T21:30:42.390Z,92912.28
2023-05-05T21:33:08.949Z,92915.69
2023-05-05T21:35:35.460Z,92907.22
2023-05-05T21:38:01.895Z,92907.47
2023-05-05T21:40:28.374Z,92906.69
2023-05-05T21:42:54.847Z,92903.78
2023-05-05T21:45:21.356Z,92902.75
2023-05-05T21:47:47.867Z,92904.88
2023-05-05T21:50:14.308Z,92900.69
2023-05-05T21:52:41.358Z,92894.88
2023-05-05T21:55:10.495Z,92890.66
2023-05-05T21:57:36.926Z,92891.19
2023-05-05T22:00:05.885Z,92899.84
2023-05-05T22:02:38.916Z,92893.78
2023-05-05T22:05:05.937Z,92893.81
2023-05-05T22:07:33.014Z,92890.66
2023-05-05T22:09:59.554Z,92891.72
2023-05-05T22:12:25.985Z,92893.06
2023-05-05T22:14:52.454Z,92883.31
2023-05-05T22:17:18.952Z,92880.94
2023-05-05T22:19:45.424Z,92890.16
2023-05-05T22:22:11.904Z,92889.91
2023-05-05T22:24:38.285Z,92895.44
2023-05-05T22:27:04.685Z,92893.81
2023-05-05T22:29:31.112Z,92896.44
2023-05-05T22:31:57.545Z,92889.38
2023-05-05T22:34:23.995Z,92895.47
2023-05-05T22:36:50.380Z,92893.91
2023-05-05T22:39:18.448Z,92897.84
2023-05-05T22:41:44.959Z,92888.66
2023-05-05T22:44:11.431Z,92891.00
2023-05-05T22:46:37.843Z,92880.75
2023-05-05T22:49:04.310Z,92880.97
2023-05-05T22:51:31.722Z,92887.03
2023-05-05T22:53:58.279Z,92885.41
2023-05-05T22:56:24.801Z,92880.38
2023-05-05T22:58:51.217Z,92882.25
2023-05-05T23:01:17.727Z,92883.38
2023-05-05T23:03:44.182Z,92885.56
2023-05-05T23:06:10.609Z,92881.09
2023-05-05T23:08:37.004Z,92877.34
2023-05-05T23:11:03.548Z,92886.03
2023-05-05T23:13:29.986Z,92874.94
2023-05-05T23:15:56.384Z,92869.97
2023-05-05T23:18:22.794Z,92877.88
2023-05-05T23:20:49.200Z,92878.09
2023-05-05T23:23:15.645Z,92877.84
2023-05-05T23:25:42.077Z,92884.44
2023-05-05T23:28:08.552Z,92888.66
2023-05-05T23:30:35.028Z,92884.44
2023-05-05T23:33:01.501Z,92872.53
2023-05-05T23:35:28.152Z,92877.56
2023-05-05T23:37:54.738Z,92878.88
2023-05-05T23:40:21.251Z,92863.31
2023-05-05T23:42:47.705Z,92873.31
2023-05-05T23:45:14.153Z,92869.09
2023-05-05T23:47:40.623Z,92866.19
2023-05-05T23:50:07.782Z,92864.38
2023-05-05T23:52:34.198Z,92864.91
2023-05-05T23:55:00.653Z,92865.97
2023-05-05T23:57:27.060Z,92863.34
2023-05-05T23:59:53.472Z,92854.88
